createdAt,value
2022-12-03T00:01:45.390Z,18.05
2022-12-03T00:06:47.358Z,14.60
2022-12-03T00:11:49.279Z,16.20
2022-12-03T00:16:51.246Z,18.15
2022-12-03T00:26:55.044Z,15.10
2022-12-03T00:31:57.009Z,16.27
2022-12-03T00:36:58.928Z,16.88
2022-12-03T00:42:00.816Z,16.17
2022-12-03T00:47:02.844Z,17.05
2022-12-03T00:52:04.828Z,17.38
2022-12-03T00:57:06.675Z,15.70
2022-12-03T01:02:08.763Z,18.77
2022-12-03T01:12:12.388Z,16.58
2022-12-03T01:17:14.285Z,14.75
2022-12-03T01:22:16.263Z,16.67
2022-12-03T01:27:18.236Z,14.95
2022-12-03T01:32:20.387Z,17.83
2022-12-03T01:37:24.336Z,15.30
2022-12-03T01:42:28.431Z,17.55
2022-12-03T01:47:36.972Z,18.13
2022-12-03T01:52:38.774Z,18.25
2022-12-03T01:57:48.604Z,16.88
2022-12-03T02:02:55.769Z,14.23
2022-12-03T02:07:57.880Z,15.95
2022-12-03T02:13:04.982Z,16.05
2022-12-03T02:18:08.274Z,15.43
2022-12-03T02:23:28.669Z,13.48
2022-12-03T02:28:30.576Z,14.90
2022-12-03T02:33:32.573Z,14.82
2022-12-03T02:38:34.401Z,16.55
2022-12-03T02:43:36.684Z,14.82
2022-12-03T02:48:39.119Z,16.50
2022-12-03T02:53:42.938Z,16.77
2022-12-03T02:58:45.327Z,17.55
2022-12-03T03:03:47.625Z,15.75
2022-12-03T03:08:49.513Z,16.52
2022-12-03T03:13:51.578Z,14.05
2022-12-03T03:23:55.103Z,15.93
2022-12-03T03:28:56.950Z,15.75
2022-12-03T03:33:58.969Z,18.27
2022-12-03T03:44:03.787Z,15.25
2022-12-03T03:49:05.764Z,16.25
2022-12-03T03:59:09.518Z,14.30
2022-12-03T04:09:20.664Z,15.75
2022-12-03T04:14:22.740Z,13.60
2022-12-03T04:24:26.217Z,14.73
2022-12-03T04:29:28.018Z,17.13
2022-12-03T04:34:30.152Z,17.85
2022-12-03T04:39:31.977Z,16.00
2022-12-03T04:44:34.145Z,17.88
2022-12-03T04:49:37.265Z,16.92
2022-12-03T04:54:39.471Z,15.82
2022-12-03T04:59:41.269Z,15.57
2022-12-03T05:04:43.222Z,14.70
2022-12-03T05:14:47.891Z,14.35
2022-12-03T05:24:51.800Z,13.38
2022-12-03T05:29:54.056Z,17.70
2022-12-03T05:34:56.684Z,17.92
2022-12-03T05:39:58.823Z,15.15
2022-12-03T05:45:00.680Z,14.68
2022-12-03T05:50:02.594Z,15.85
2022-12-03T05:55:05.606Z,14.70
2022-12-03T06:00:09.860Z,13.15
2022-12-03T06:05:12.186Z,13.25
2022-12-03T06:10:15.283Z,11.13
2022-12-03T06:15:17.395Z,14.30
2022-12-03T06:25:21.507Z,10.30
2022-12-03T06:35:25.199Z,12.98
2022-12-03T06:40:27.088Z,13.40
2022-12-03T06:45:29.113Z,14.48
2022-12-03T06:50:31.141Z,14.82
2022-12-03T06:55:33.992Z,14.82
2022-12-03T07:00:35.885Z,15.82
2022-12-03T07:05:37.837Z,15.60
2022-12-03T07:10:39.704Z,16.20
2022-12-03T07:15:41.729Z,14.73
2022-12-03T07:25:45.472Z,13.27
2022-12-03T07:30:47.510Z,16.48
2022-12-03T07:35:49.337Z,14.65
2022-12-03T07:40:52.519Z,14.27
2022-12-03T07:45:54.415Z,15.23
2022-12-03T07:50:56.256Z,15.45
2022-12-03T07:55:58.229Z,16.58
2022-12-03T08:01:00.186Z,17.35
2022-12-03T08:06:02.227Z,18.60
2022-12-03T08:11:05.555Z,20.90
2022-12-03T08:16:19.924Z,20.25
2022-12-03T08:21:23.146Z,20.77
2022-12-03T08:26:27.995Z,19.70
2022-12-03T08:31:33.617Z,22.58
2022-12-03T08:36:36.821Z,20.75
2022-12-03T08:41:38.939Z,16.90
2022-12-03T08:46:40.781Z,18.52
2022-12-03T08:51:42.563Z,15.15
2022-12-03T08:56:44.428Z,18.10
2022-12-03T09:01:46.870Z,15.65
2022-12-03T09:06:49.505Z,14.63
2022-12-03T09:11:52.080Z,14.73
2022-12-03T09:16:54.107Z,15.10
2022-12-03T09:21:55.963Z,15.23
2022-12-03T09:26:57.888Z,16.17
2022-12-03T09:31:59.763Z,17.55
2022-12-03T09:37:01.837Z,16.08
2022-12-03T09:42:03.774Z,15.98
2022-12-03T09:47:05.724Z,17.10
2022-12-03T09:52:07.800Z,16.58
2022-12-03T09:57:10.114Z,16.42
2022-12-03T10:02:21.425Z,16.20
2022-12-03T10:07:24.484Z,15.02
2022-12-03T10:12:26.343Z,15.10
2022-12-03T10:17:28.443Z,17.33
2022-12-03T10:22:30.499Z,14.90
2022-12-03T10:27:32.554Z,15.48
2022-12-03T10:32:47.816Z,15.35
2022-12-03T10:38:03.563Z,14.90
2022-12-03T10:43:18.480Z,13.20
2022-12-03T10:48:21.862Z,15.90
2022-12-03T10:53:26.998Z,14.90
2022-12-03T10:58:31.365Z,14.35
2022-12-03T11:03:36.529Z,14.70
2022-12-03T11:08:38.685Z,13.93
2022-12-03T11:13:40.526Z,13.20
2022-12-03T11:18:42.637Z,14.73
2022-12-03T11:23:44.644Z,13.55
2022-12-03T11:28:46.574Z,12.02
2022-12-03T11:33:48.408Z,13.82
2022-12-03T11:38:53.578Z,16.10
2022-12-03T11:43:55.622Z,15.82
2022-12-03T11:48:58.986Z,14.23
2022-12-03T11:54:00.832Z,15.25
2022-12-03T11:59:03.970Z,11.67
2022-12-03T12:04:06.310Z,15.35
2022-12-03T12:09:08.542Z,16.42
2022-12-03T12:14:11.956Z,16.95
2022-12-03T12:19:35.673Z,15.25
2022-12-03T12:24:40.622Z,17.20
2022-12-03T12:29:43.574Z,16.98
2022-12-03T12:34:49.322Z,15.98
2022-12-03T12:39:53.483Z,16.92
2022-12-03T12:45:00.100Z,18.13
2022-12-03T12:50:02.111Z,14.38
2022-12-03T12:55:07.262Z,17.05
2022-12-03T13:00:20.602Z,17.67
2022-12-03T13:05:23.325Z,15.68
2022-12-03T13:10:40.944Z,15.85
2022-12-03T13:20:50.951Z,16.95
2022-12-03T13:26:09.259Z,15.45
2022-12-03T13:31:21.760Z,16.90
2022-12-03T13:36:29.856Z,16.35
2022-12-03T13:41:31.725Z,16.25
2022-12-03T13:46:33.662Z,12.45
2022-12-03T13:56:37.877Z,16.58
2022-12-03T14:01:39.891Z,14.40
2022-12-03T14:06:41.979Z,15.27
2022-12-03T14:11:44.255Z,15.53
2022-12-03T14:16:46.164Z,12.80
2022-12-03T14:21:48.245Z,12.13
2022-12-03T14:26:50.156Z,13.30
2022-12-03T14:31:52.227Z,12.50
2022-12-03T14:36:54.538Z,11.93
2022-12-03T14:41:56.576Z,12.68
2022-12-03T14:46:58.472Z,13.50
2022-12-03T14:52:00.232Z,9.30
2022-12-03T14:57:02.264Z,11.53
2022-12-03T15:02:05.527Z,10.90
2022-12-03T15:07:08.497Z,11.63
2022-12-03T15:12:10.412Z,13.13
2022-12-03T15:17:12.689Z,14.10
2022-12-03T15:22:14.587Z,13.15
2022-12-03T15:27:16.476Z,13.33
2022-12-03T15:32:18.296Z,9.63
2022-12-03T15:37:20.602Z,11.27
2022-12-03T15:42:22.475Z,14.73
2022-12-03T15:47:24.499Z,14.83
2022-12-03T15:52:26.392Z,14.73
2022-12-03T15:57:28.258Z,15.63
2022-12-03T16:02:30.093Z,10.90
2022-12-03T16:07:32.556Z,12.82
2022-12-03T16:12:34.477Z,12.40
2022-12-03T16:17:36.362Z,13.53
2022-12-03T16:22:38.274Z,14.37
2022-12-03T16:27:40.209Z,14.67
2022-12-03T16:32:42.108Z,12.65
2022-12-03T16:37:43.957Z,12.80
2022-12-03T16:42:45.798Z,14.68
2022-12-03T16:47:47.733Z,17.17
2022-12-03T16:52:49.739Z,12.80
2022-12-03T16:57:51.603Z,15.73
2022-12-03T17:02:53.810Z,14.90
2022-12-03T17:07:55.722Z,16.63
2022-12-03T17:13:12.964Z,12.68
2022-12-03T17:18:14.725Z,11.35
2022-12-03T17:23:16.566Z,8.73
2022-12-03T17:28:18.378Z,9.27
2022-12-03T17:33:20.174Z,8.80
2022-12-03T17:38:22.178Z,6.83
2022-12-03T17:43:24.155Z,8.18
2022-12-03T17:48:29.134Z,8.47
2022-12-03T17:53:31.100Z,7.95
2022-12-03T17:58:34.693Z,8.88
2022-12-03T18:03:37.144Z,9.50
2022-12-03T18:08:39.433Z,10.93
2022-12-03T18:13:42.383Z,9.88
2022-12-03T18:18:44.223Z,8.02
2022-12-03T18:23:46.216Z,9.13
2022-12-03T18:28:48.012Z,7.13
2022-12-03T18:33:51.158Z,11.43
2022-12-03T18:38:53.842Z,7.60
2022-12-03T18:43:57.244Z,9.63
2022-12-03T18:49:02.683Z,9.63
2022-12-03T18:54:05.038Z,9.95
2022-12-03T19:04:10.031Z,9.48
2022-12-03T19:09:11.857Z,8.45
2022-12-03T19:14:13.648Z,10.10
2022-12-03T19:19:15.584Z,9.20
2022-12-03T19:24:25.565Z,9.32
2022-12-03T19:29:27.764Z,9.32
2022-12-03T19:34:29.503Z,10.10
2022-12-03T19:39:31.394Z,9.10
2022-12-03T19:44:33.480Z,10.07
2022-12-03T19:49:35.567Z,10.93
2022-12-03T19:54:37.405Z,10.25
2022-12-03T19:59:39.268Z,8.38
2022-12-03T20:04:41.146Z,10.48
2022-12-03T20:09:44.189Z,10.40
2022-12-03T20:14:46.036Z,10.70
2022-12-03T20:19:48.025Z,8.77
2022-12-03T20:24:49.856Z,11.90
2022-12-03T20:29:51.865Z,10.80
2022-12-03T20:34:53.930Z,11.05
2022-12-03T20:39:56.159Z,9.38
2022-12-03T20:49:59.936Z,10.35
2022-12-03T20:55:01.840Z,12.32
2022-12-03T21:00:04.169Z,9.68
2022-12-03T21:05:06.703Z,14.50
2022-12-03T21:15:10.677Z,11.57
2022-12-03T21:20:16.603Z,12.13
2022-12-03T21:25:21.279Z,11.65
2022-12-03T21:30:23.407Z,12.20
2022-12-03T21:35:25.566Z,12.07
2022-12-03T21:40:27.447Z,12.10
2022-12-03T21:45:29.304Z,11.23
2022-12-03T21:50:31.161Z,10.47
2022-12-03T21:55:33.076Z,11.77
2022-12-03T22:00:35.149Z,12.10
2022-12-03T22:05:39.739Z,11.35
2022-12-03T22:10:41.595Z,11.77
2022-12-03T22:15:43.579Z,12.53
2022-12-03T22:20:45.421Z,8.75
2022-12-03T22:25:47.277Z,11.07
2022-12-03T22:30:49.191Z,12.63
2022-12-03T22:35:58.178Z,10.63
2022-12-03T22:41:00.214Z,10.73
2022-12-03T22:46:02.099Z,12.23
2022-12-03T22:51:04.317Z,12.73
2022-12-03T22:56:06.596Z,12.52
2022-12-03T23:01:08.611Z,13.00
2022-12-03T23:06:11.256Z,12.63
2022-12-03T23:11:13.137Z,12.32
2022-12-03T23:16:23.374Z,13.90
2022-12-03T23:21:29.890Z,12.35
2022-12-03T23:26:34.848Z,12.23
2022-12-03T23:31:36.754Z,12.15
2022-12-03T23:36:38.630Z,11.65
2022-12-03T23:41:40.479Z,11.30
2022-12-03T23:46:42.425Z,11.97
2022-12-03T23:51:44.477Z,10.95
2022-12-03T23:56:46.291Z,9.95
